createdAt,value
2022-10-11T00:00:47.267Z,97276.72
2022-10-11T00:03:14.634Z,97275.81
2022-10-11T00:05:41.816Z,97282.78
2022-10-11T00:08:08.318Z,97270.66
2022-10-11T00:10:34.832Z,97278.09
2022-10-11T00:13:01.301Z,97278.91
2022-10-11T00:15:28.072Z,97268.97
2022-10-11T00:17:54.541Z,97277.88
2022-10-11T00:20:21.029Z,97265.56
2022-10-11T00:22:49.293Z,97266.47
2022-10-11T00:25:16.856Z,97263.47
2022-10-11T00:27:43.305Z,97266.91
2022-10-11T00:30:10.641Z,97267.47
2022-10-11T00:32:38.575Z,97266.09
2022-10-11T00:35:07.190Z,97252.41
2022-10-11T00:37:34.829Z,97254.34
2022-10-11T00:40:02.042Z,97248.06
2022-10-11T00:42:28.682Z,97246.25
2022-10-11T00:45:26.932Z,97249.06
2022-10-11T00:47:58.038Z,97251.13
2022-10-11T00:50:27.157Z,97248.38
2022-10-11T00:52:57.886Z,97242.44
2022-10-11T00:55:28.252Z,97254.19
2022-10-11T00:57:57.878Z,97257.59
2022-10-11T01:00:24.524Z,97245.72
2022-10-11T01:02:51.084Z,97261.25
2022-10-11T01:05:29.134Z,97263.22
2022-10-11T01:07:58.989Z,97255.44
2022-10-11T01:10:26.894Z,97273.97
2022-10-11T01:12:53.295Z,97270.97
2022-10-11T01:15:36.106Z,97276.28
2022-10-11T01:18:11.018Z,97287.59
2022-10-11T01:20:48.375Z,97294.22
2022-10-11T01:23:35.808Z,97295.47
2022-10-11T01:26:30.958Z,97298.53
2022-10-11T01:29:44.884Z,97304.25
2022-10-11T01:32:22.978Z,97308.03
2022-10-11T01:35:06.450Z,97295.91
2022-10-11T01:37:37.173Z,97299.00
2022-10-11T01:40:03.720Z,97298.53
2022-10-11T01:42:30.378Z,97299.00
2022-10-11T01:44:58.605Z,97304.13
2022-10-11T01:47:25.828Z,97296.94
2022-10-11T01:49:58.453Z,97298.91
2022-10-11T01:52:28.974Z,97296.66
2022-10-11T01:55:10.801Z,97297.25
2022-10-11T01:58:02.231Z,97292.91
2022-10-11T02:00:40.786Z,97297.38
2022-10-11T02:03:26.646Z,97302.63
2022-10-11T02:06:02.767Z,97299.53
2022-10-11T02:08:44.604Z,97302.50
2022-10-11T02:11:43.492Z,97308.00
2022-10-11T02:14:14.946Z,97302.75
2022-10-11T02:16:49.224Z,97290.28
2022-10-11T02:19:20.623Z,97290.28
2022-10-11T02:21:53.118Z,97291.22
2022-10-11T02:24:25.221Z,97286.97
2022-10-11T02:26:55.532Z,97292.00
2022-10-11T02:29:24.312Z,97285.97
2022-10-11T02:31:51.918Z,97290.22
2022-10-11T02:34:23.259Z,97285.88
2022-10-11T02:37:05.778Z,97279.44
2022-10-11T02:39:42.022Z,97280.84
2022-10-11T02:42:14.312Z,97282.38
2022-10-11T02:44:46.450Z,97278.81
2022-10-11T02:47:14.000Z,97269.81
2022-10-11T02:49:40.465Z,97298.75
2022-10-11T02:52:06.990Z,97295.19
2022-10-11T02:54:33.491Z,97296.94
2022-10-11T02:57:00.009Z,97288.13
2022-10-11T02:59:27.176Z,97288.38
2022-10-11T03:01:53.818Z,97289.81
2022-10-11T03:04:20.508Z,97292.56
2022-10-11T03:06:46.879Z,97291.13
2022-10-11T03:09:13.324Z,97286.66
2022-10-11T03:11:39.768Z,97288.03
2022-10-11T03:14:06.290Z,97291.59
2022-10-11T03:16:32.806Z,97284.94
2022-10-11T03:18:59.297Z,97301.25
2022-10-11T03:21:25.896Z,97295.78
2022-10-11T03:23:52.295Z,97307.44
2022-10-11T03:26:18.780Z,97308.47
2022-10-11T03:28:45.353Z,97307.69
2022-10-11T03:31:12.079Z,97321.75
2022-10-11T03:33:38.439Z,97318.81
2022-10-11T03:36:05.728Z,97316.13
2022-10-11T03:38:32.455Z,97317.88
2022-10-11T03:40:58.906Z,97314.25
2022-10-11T03:43:25.354Z,97318.47
2022-10-11T03:45:51.829Z,97314.47
2022-10-11T03:48:18.277Z,97320.44
2022-10-11T03:50:44.698Z,97320.06
2022-10-11T03:53:11.412Z,97333.63
2022-10-11T03:55:40.104Z,97332.63
2022-10-11T03:58:07.194Z,97332.03
2022-10-11T04:00:34.871Z,97337.06
2022-10-11T04:03:03.879Z,97343.13
2022-10-11T04:05:30.743Z,97340.94
2022-10-11T04:07:57.531Z,97347.94
2022-10-11T04:10:23.993Z,97348.50
2022-10-11T04:12:50.422Z,97343.44
2022-10-11T04:15:16.990Z,97348.22
2022-10-11T04:17:43.365Z,97352.81
2022-10-11T04:20:10.371Z,97355.94
2022-10-11T04:22:36.797Z,97347.34
2022-10-11T04:25:03.470Z,97350.34
2022-10-11T04:27:30.197Z,97348.06
2022-10-11T04:29:56.710Z,97352.56
2022-10-11T04:32:23.069Z,97347.94
2022-10-11T04:34:49.725Z,97339.25
2022-10-11T04:37:16.182Z,97352.94
2022-10-11T04:39:42.625Z,97353.19
2022-10-11T04:42:09.057Z,97358.19
2022-10-11T04:44:35.664Z,97349.53
2022-10-11T04:47:02.046Z,97355.94
2022-10-11T04:49:28.476Z,97356.38
2022-10-11T04:51:54.968Z,97357.41
2022-10-11T04:54:21.622Z,97359.16
2022-10-11T04:56:48.124Z,97359.22
2022-10-11T04:59:14.642Z,97360.44
2022-10-11T05:01:41.242Z,97367.63
2022-10-11T05:04:07.694Z,97367.63
2022-10-11T05:06:34.257Z,97374.63
2022-10-11T05:09:00.661Z,97374.00
2022-10-11T05:11:27.392Z,97379.13
2022-10-11T05:13:53.886Z,97375.56
2022-10-11T05:16:20.257Z,97383.00
2022-10-11T05:18:46.705Z,97376.72
2022-10-11T05:21:19.326Z,97382.69
2022-10-11T05:23:47.080Z,97391.09
2022-10-11T05:26:13.857Z,97377.75
2022-10-11T05:28:40.499Z,97392.25
2022-10-11T05:31:07.178Z,97397.66
2022-10-11T05:33:33.566Z,97387.59
2022-10-11T05:36:00.559Z,97394.00
2022-10-11T05:38:27.252Z,97393.53
2022-10-11T05:40:54.331Z,97402.16
2022-10-11T05:43:20.756Z,97406.41
2022-10-11T05:45:47.332Z,97407.97
2022-10-11T05:48:13.730Z,97410.03
2022-10-11T05:50:41.061Z,97413.03
2022-10-11T05:53:07.917Z,97417.25
2022-10-11T05:55:41.898Z,97422.88
2022-10-11T05:58:12.305Z,97427.16
2022-10-11T06:00:38.814Z,97425.50
2022-10-11T06:03:08.324Z,97429.06
2022-10-11T06:05:35.794Z,97432.88
2022-10-11T06:08:03.346Z,97428.78
2022-10-11T06:10:29.904Z,97433.81
2022-10-11T06:12:56.304Z,97437.94
2022-10-11T06:15:22.780Z,97436.81
2022-10-11T06:17:49.402Z,97444.38
2022-10-11T06:20:16.138Z,97442.13
2022-10-11T06:22:42.694Z,97436.00
2022-10-11T06:25:09.382Z,97450.75
2022-10-11T06:27:35.838Z,97452.03
2022-10-11T06:30:02.804Z,97454.63
2022-10-11T06:32:29.385Z,97455.91
2022-10-11T06:34:55.790Z,97455.09
2022-10-11T06:37:22.280Z,97456.03
2022-10-11T06:39:50.353Z,97455.34
2022-10-11T06:42:17.564Z,97457.91
2022-10-11T06:44:44.067Z,97460.53
2022-10-11T06:47:10.496Z,97463.91
2022-10-11T06:49:36.997Z,97461.84
2022-10-11T06:52:03.506Z,97475.88
2022-10-11T06:54:30.082Z,97472.75
2022-10-11T06:56:56.524Z,97472.06
2022-10-11T06:59:22.982Z,97473.13
2022-10-11T07:01:49.539Z,97474.81
2022-10-11T07:04:15.956Z,97481.59
2022-10-11T07:06:42.468Z,97480.69
2022-10-11T07:09:09.010Z,97484.22
2022-10-11T07:11:35.988Z,97486.28
2022-10-11T07:14:07.541Z,97479.88
2022-10-11T07:16:36.153Z,97489.75
2022-10-11T07:19:04.536Z,97494.31
2022-10-11T07:21:32.752Z,97490.22
2022-10-11T07:23:59.518Z,97490.94
2022-10-11T07:26:27.305Z,97493.47
2022-10-11T07:28:53.964Z,97491.66
2022-10-11T07:31:23.354Z,97500.13
2022-10-11T07:33:49.800Z,97504.50
2022-10-11T07:36:16.394Z,97504.84
2022-10-11T07:38:43.307Z,97507.28
2022-10-11T07:41:10.969Z,97507.03
2022-10-11T07:43:38.513Z,97503.25
2022-10-11T07:46:05.822Z,97510.13
2022-10-11T07:48:34.920Z,97510.13
2022-10-11T07:51:16.935Z,97510.38
2022-10-11T07:53:45.423Z,97505.81
2022-10-11T07:56:13.917Z,97504.66
2022-10-11T07:58:41.531Z,97507.31
2022-10-11T08:01:10.174Z,97506.59
2022-10-11T08:03:38.032Z,97504.53
2022-10-11T08:06:08.844Z,97506.47
2022-10-11T08:08:36.522Z,97514.13
2022-10-11T08:11:03.584Z,97514.78
2022-10-11T08:13:30.077Z,97507.44
2022-10-11T08:15:56.908Z,97505.63
2022-10-11T08:18:23.947Z,97503.28
2022-10-11T08:20:50.489Z,97506.03
2022-10-11T08:23:17.715Z,97516.22
2022-10-11T08:25:47.250Z,97511.91
2022-10-11T08:28:17.960Z,97515.34
2022-10-11T08:30:52.839Z,97504.34
2022-10-11T08:33:21.315Z,97505.84
2022-10-11T08:35:48.855Z,97511.53
2022-10-11T08:38:15.920Z,97509.06
2022-10-11T08:40:52.061Z,97511.78
2022-10-11T08:43:31.557Z,97508.19
2022-10-11T08:46:02.502Z,97512.66
2022-10-11T08:48:36.682Z,97508.34
2022-10-11T08:51:14.470Z,97505.69
2022-10-11T08:53:47.750Z,97512.38
2022-10-11T08:56:16.216Z,97518.13
2022-10-11T08:58:50.414Z,97520.28
2022-10-11T09:01:24.803Z,97514.97
2022-10-11T09:03:51.941Z,97514.19
2022-10-11T09:06:21.585Z,97513.59
2022-10-11T09:08:56.557Z,97515.63
2022-10-11T09:11:37.703Z,97515.34
2022-10-11T09:14:24.200Z,97507.22
2022-10-11T09:17:11.974Z,97513.41
2022-10-11T09:20:20.491Z,97511.16
2022-10-11T09:22:55.472Z,97519.13
2022-10-11T09:25:28.751Z,97516.88
2022-10-11T09:28:32.537Z,97517.91
2022-10-11T09:30:59.370Z,97518.06
2022-10-11T09:33:43.035Z,97511.53
2022-10-11T09:36:19.644Z,97514.41
2022-10-11T09:38:52.256Z,97505.53
2022-10-11T09:41:29.250Z,97497.91
2022-10-11T09:43:55.773Z,97508.78
2022-10-11T09:46:44.088Z,97510.81
2022-10-11T09:49:16.680Z,97503.13
2022-10-11T09:51:50.426Z,97514.91
2022-10-11T09:54:18.313Z,97505.22
2022-10-11T09:56:45.904Z,97495.63
2022-10-11T09:59:33.874Z,97511.66
2022-10-11T10:02:27.744Z,97508.38
2022-10-11T10:05:04.204Z,97511.19
2022-10-11T10:07:33.237Z,97506.84
2022-10-11T10:10:25.861Z,97513.53
2022-10-11T10:12:59.387Z,97519.72
2022-10-11T10:33:11.688Z,97522.84
2022-10-11T10:35:48.434Z,97518.19
2022-10-11T10:38:32.799Z,97517.28
2022-10-11T10:41:04.424Z,97511.41
2022-10-11T10:43:35.765Z,97518.84
2022-10-11T10:46:26.753Z,97523.16
2022-10-11T10:49:48.894Z,97519.44
2022-10-11T10:52:41.584Z,97524.09
2022-10-11T10:55:21.761Z,97520.00
2022-10-11T10:58:00.128Z,97518.97
2022-10-11T11:00:34.066Z,97517.47
2022-10-11T11:03:06.347Z,97518.91
2022-10-11T11:05:57.644Z,97522.53
2022-10-11T11:08:38.982Z,97512.22
2022-10-11T11:11:23.814Z,97519.38
2022-10-11T11:14:11.952Z,97518.09
2022-10-11T11:16:48.936Z,97513.56
2022-10-11T11:19:53.328Z,97524.44
2022-10-11T11:22:56.902Z,97518.41
2022-10-11T11:25:48.289Z,97512.31
2022-10-11T11:28:36.714Z,97516.63
2022-10-11T11:31:10.413Z,97518.81
2022-10-11T11:33:49.392Z,97518.34
2022-10-11T11:36:27.537Z,97504.97
2022-10-11T11:38:59.861Z,97511.03
2022-10-11T11:41:33.314Z,97510.81
2022-10-11T11:44:11.195Z,97507.75
2022-10-11T11:46:47.318Z,97509.75
2022-10-11T11:49:19.154Z,97509.13
2022-10-11T11:51:46.442Z,97511.19
2022-10-11T11:54:28.716Z,97504.25
2022-10-11T11:57:07.084Z,97512.50
2022-10-11T11:59:46.763Z,97499.41
2022-10-11T12:02:44.872Z,97506.06
2022-10-11T12:05:17.006Z,97503.22
2022-10-11T12:07:47.789Z,97501.88
2022-10-11T12:10:23.379Z,97502.38
2022-10-11T12:13:21.206Z,97500.78
2022-10-11T12:16:15.627Z,97502.81
2022-10-11T12:18:57.396Z,97497.31
2022-10-11T12:21:35.642Z,97492.44
2022-10-11T12:24:12.541Z,97499.03
2022-10-11T12:26:56.810Z,97495.13
2022-10-11T12:29:41.576Z,97490.22
2022-10-11T12:32:10.856Z,97499.59
2022-10-11T12:34:44.498Z,97493.03
2022-10-11T12:37:19.899Z,97494.97
2022-10-11T12:39:50.723Z,97487.22
2022-10-11T12:42:21.768Z,97494.53
2022-10-11T12:45:13.171Z,97487.97
2022-10-11T12:47:55.807Z,97490.69
2022-10-11T12:50:37.498Z,97486.41
2022-10-11T12:53:28.260Z,97491.69
2022-10-11T12:56:21.090Z,97490.63
2022-10-11T12:58:48.399Z,97494.53
2022-10-11T13:01:17.536Z,97493.38
2022-10-11T13:03:50.843Z,97484.47
2022-10-11T13:06:26.247Z,97487.41
2022-10-11T13:09:02.286Z,97478.50
2022-10-11T13:11:36.189Z,97484.34
2022-10-11T13:14:10.668Z,97469.53
2022-10-11T13:16:51.515Z,97482.84
2022-10-11T13:19:23.019Z,97481.69
2022-10-11T13:21:59.139Z,97472.88
2022-10-11T13:24:27.272Z,97481.25
2022-10-11T13:26:56.413Z,97479.75
2022-10-11T13:29:35.814Z,97484.13
2022-10-11T13:32:10.990Z,97475.97
2022-10-11T13:34:40.313Z,97468.66
2022-10-11T13:37:07.897Z,97472.72
2022-10-11T13:39:36.740Z,97465.28
2022-10-11T13:42:07.965Z,97469.84
2022-10-11T13:44:37.596Z,97475.28
2022-10-11T13:47:05.014Z,97466.97
2022-10-11T13:49:40.053Z,97463.25
2022-10-11T13:52:19.226Z,97466.38
2022-10-11T13:55:04.071Z,97461.09
2022-10-11T13:57:35.959Z,97459.25
2022-10-11T14:00:08.967Z,97462.59
2022-10-11T14:02:39.048Z,97451.19
2022-10-11T14:05:05.950Z,97456.88
2022-10-11T14:07:38.737Z,97453.56
2022-10-11T14:10:06.841Z,97457.84
2022-10-11T14:12:43.240Z,97464.59
2022-10-11T14:15:28.378Z,97464.78
2022-10-11T14:17:54.836Z,97465.81
2022-10-11T14:20:37.096Z,97462.66
2022-10-11T14:23:04.205Z,97468.63
2022-10-11T14:25:31.038Z,97472.06
2022-10-11T14:27:58.145Z,97473.09
2022-10-11T14:30:27.561Z,97472.47
2022-10-11T14:32:57.690Z,97470.78
2022-10-11T14:35:30.992Z,97470.97
2022-10-11T14:37:58.145Z,97469.81
2022-10-11T14:40:28.961Z,97462.44
2022-10-11T14:42:55.653Z,97466.81
2022-10-11T14:45:22.283Z,97468.19
2022-10-11T14:47:49.620Z,97464.25
2022-10-11T14:50:40.429Z,97468.91
2022-10-11T14:53:08.844Z,97471.06
2022-10-11T14:55:36.716Z,97467.53
2022-10-11T14:58:04.590Z,97476.94
2022-10-11T15:00:32.100Z,97474.22
2022-10-11T15:02:58.768Z,97469.44
2022-10-11T15:05:32.711Z,97471.28
2022-10-11T15:08:00.933Z,97468.91
2022-10-11T15:10:40.777Z,97468.34
2022-10-11T15:13:08.997Z,97468.69
2022-10-11T15:15:37.640Z,97464.53
2022-10-11T15:18:06.579Z,97465.28
2022-10-11T15:20:37.703Z,97462.81
2022-10-11T15:23:05.328Z,97457.34
2022-10-11T15:25:32.384Z,97463.03
2022-10-11T15:27:59.170Z,97461.56
2022-10-11T15:30:34.815Z,97474.19
2022-10-11T15:33:04.867Z,97464.84
2022-10-11T15:35:31.348Z,97462.44
2022-10-11T15:37:59.222Z,97464.19
2022-10-11T15:40:27.086Z,97465.81
2022-10-11T15:42:54.850Z,97470.00
2022-10-11T15:45:22.616Z,97458.25
2022-10-11T15:47:49.460Z,97465.75
2022-10-11T15:50:33.703Z,97466.81
2022-10-11T15:53:15.652Z,97460.38
2022-10-11T15:55:51.114Z,97469.06
2022-10-11T15:58:39.231Z,97463.78
2022-10-11T16:01:08.786Z,97462.44
2022-10-11T16:03:35.996Z,97463.06
2022-10-11T16:06:05.232Z,97459.63
2022-10-11T16:08:33.074Z,97457.97
2022-10-11T16:10:59.552Z,97454.41
2022-10-11T16:13:26.065Z,97461.06
2022-10-11T16:15:52.571Z,97457.38
2022-10-11T16:18:20.949Z,97462.59
2022-10-11T16:20:50.038Z,97457.38
2022-10-11T16:23:16.832Z,97453.84
2022-10-11T16:25:43.423Z,97456.44
2022-10-11T16:28:10.615Z,97465.09
2022-10-11T16:30:43.118Z,97462.47
2022-10-11T16:33:09.920Z,97465.91
2022-10-11T16:35:36.860Z,97456.81
2022-10-11T16:38:03.320Z,97460.84
2022-10-11T16:40:30.117Z,97461.72
2022-10-11T16:42:56.598Z,97462.06
2022-10-11T16:45:23.422Z,97457.75
2022-10-11T16:47:50.349Z,97468.81
2022-10-11T16:50:16.909Z,97468.69
2022-10-11T16:52:43.323Z,97477.00
2022-10-11T16:55:09.885Z,97480.13
2022-10-11T16:57:37.769Z,97478.53
2022-10-11T17:00:08.789Z,97476.13
2022-10-11T17:02:36.021Z,97478.94
2022-10-11T17:05:02.722Z,97473.22
2022-10-11T17:07:29.790Z,97464.16
2022-10-11T17:09:56.340Z,97470.31
2022-10-11T17:12:23.613Z,97478.94
2022-10-11T17:14:50.575Z,97483.09
2022-10-11T17:17:18.671Z,97480.38
2022-10-11T17:19:47.288Z,97479.09
2022-10-11T17:22:18.554Z,97487.16
2022-10-11T17:24:45.326Z,97483.50
2022-10-11T17:27:12.208Z,97479.66
2022-10-11T17:29:38.756Z,97494.41
2022-10-11T17:32:05.532Z,97488.78
2022-10-11T17:34:32.155Z,97483.84
2022-10-11T17:36:58.539Z,97490.81
2022-10-11T17:39:25.698Z,97487.38
2022-10-11T17:41:52.455Z,97484.66
2022-10-11T17:44:19.403Z,97485.34
2022-10-11T17:46:46.637Z,97493.13
2022-10-11T17:49:13.586Z,97487.84
2022-10-11T17:51:41.012Z,97487.03
2022-10-11T17:54:12.335Z,97486.03
2022-10-11T17:56:40.756Z,97468.50
2022-10-11T17:59:08.353Z,97490.75
2022-10-11T18:01:35.642Z,97497.13
2022-10-11T18:04:05.009Z,97498.50
2022-10-11T18:06:34.161Z,97503.22
2022-10-11T18:09:02.070Z,97497.00
2022-10-11T18:11:29.280Z,97485.31
2022-10-11T18:13:56.410Z,97496.34
2022-10-11T18:16:26.907Z,97492.47
2022-10-11T18:18:54.199Z,97486.63
2022-10-11T18:21:20.715Z,97479.50
2022-10-11T18:23:47.273Z,97479.03
2022-10-11T18:26:15.151Z,97479.84
2022-10-11T18:28:43.228Z,97473.88
2022-10-11T18:31:13.625Z,97470.16
2022-10-11T18:33:41.026Z,97473.81
2022-10-11T18:36:09.333Z,97473.72
2022-10-11T18:38:37.929Z,97460.59
2022-10-11T18:41:09.096Z,97478.91
2022-10-11T18:43:36.191Z,97481.31
2022-10-11T18:46:14.339Z,97485.22
2022-10-11T18:48:42.460Z,97479.38
2022-10-11T18:51:14.439Z,97476.66
2022-10-11T18:53:41.638Z,97489.38
2022-10-11T18:56:10.359Z,97481.94
2022-10-11T18:58:38.084Z,97482.72
2022-10-11T19:01:18.035Z,97486.41
2022-10-11T19:03:46.253Z,97478.88
2022-10-11T19:06:19.748Z,97473.72
2022-10-11T19:08:51.294Z,97479.00
2022-10-11T19:11:22.183Z,97489.66
2022-10-11T19:13:55.365Z,97478.94
2022-10-11T19:16:22.186Z,97491.78
2022-10-11T19:18:50.024Z,97476.56
2022-10-11T19:21:16.937Z,97485.59
2022-10-11T19:23:45.393Z,97475.41
2022-10-11T19:26:15.353Z,97478.50
2022-10-11T19:28:42.768Z,97471.66
2022-10-11T19:31:12.959Z,97472.69
2022-10-11T19:33:39.451Z,97472.81
2022-10-11T19:36:06.815Z,97479.22
2022-10-11T19:38:35.397Z,97476.13
2022-10-11T19:41:04.056Z,97466.88
2022-10-11T19:43:31.626Z,97478.69
2022-10-11T19:46:02.509Z,97484.66
2022-10-11T19:48:30.076Z,97465.59
2022-10-11T19:51:14.508Z,97474.31
2022-10-11T19:53:41.376Z,97474.88
2022-10-11T19:56:10.674Z,97485.06
2022-10-11T19:58:37.897Z,97485.75
2022-10-11T20:01:07.230Z,97490.91
2022-10-11T20:03:34.741Z,97479.22
2022-10-11T20:06:02.611Z,97498.13
2022-10-11T20:08:31.258Z,97490.78
2022-10-11T20:10:59.383Z,97494.13
2022-10-11T20:13:30.060Z,97485.41
2022-10-11T20:16:05.365Z,97499.25
2022-10-11T20:18:31.951Z,97498.91
2022-10-11T20:21:00.076Z,97493.06
2022-10-11T20:23:27.817Z,97504.72
2022-10-11T20:26:08.151Z,97509.31
2022-10-11T20:28:36.296Z,97505.50
2022-10-11T20:31:10.318Z,97503.22
2022-10-11T20:33:37.670Z,97493.34
2022-10-11T20:36:09.547Z,97512.56
2022-10-11T20:38:39.223Z,97486.13
2022-10-11T20:41:07.923Z,97506.06
2022-10-11T20:43:34.598Z,97501.44
2022-10-11T20:46:12.894Z,97502.22
2022-10-11T20:48:40.637Z,97500.84
2022-10-11T20:51:10.778Z,97509.28
2022-10-11T20:53:38.578Z,97497.50
2022-10-11T20:56:10.247Z,97514.22
2022-10-11T20:58:36.855Z,97514.06
2022-10-11T21:01:14.109Z,97508.09
2022-10-11T21:03:41.430Z,97507.63
2022-10-11T21:06:08.705Z,97507.63
2022-10-11T21:08:36.647Z,97507.16
2022-10-11T21:11:03.574Z,97507.63
2022-10-11T21:13:30.668Z,97499.81
2022-10-11T21:16:04.750Z,97513.44
2022-10-11T21:18:31.261Z,97509.81
2022-10-11T21:20:57.744Z,97509.94
2022-10-11T21:23:24.313Z,97484.97
2022-10-11T21:25:50.662Z,97507.22
2022-10-11T21:28:17.091Z,97501.38
2022-10-11T21:30:43.587Z,97496.91
2022-10-11T21:33:10.007Z,97492.09
2022-10-11T21:35:39.093Z,97492.91
2022-10-11T21:38:05.560Z,97502.47
2022-10-11T21:40:32.056Z,97503.28
2022-10-11T21:42:58.513Z,97500.75
2022-10-11T21:45:25.034Z,97486.31
2022-10-11T21:47:51.541Z,97489.09
2022-10-11T21:50:17.956Z,97497.19
2022-10-11T21:52:44.530Z,97493.91
2022-10-11T21:55:10.917Z,97499.16
2022-10-11T21:57:37.433Z,97488.31
2022-10-11T22:00:04.830Z,97494.34
2022-10-11T22:18:06.422Z,97508.28
2022-10-11T22:20:33.703Z,97503.47
2022-10-11T22:23:00.306Z,97508.53
2022-10-11T22:25:26.798Z,97498.53
2022-10-11T22:27:53.405Z,97496.91
2022-10-11T22:30:20.121Z,97510.88
2022-10-11T22:32:46.679Z,97497.53
2022-10-11T22:35:13.129Z,97494.91
2022-10-11T22:37:39.705Z,97495.09
2022-10-11T22:40:06.628Z,97486.66
2022-10-11T22:42:33.203Z,97490.22
2022-10-11T22:44:59.847Z,97489.41
2022-10-11T22:47:26.643Z,97486.91
2022-10-11T22:49:53.194Z,97484.88
2022-10-11T22:52:20.024Z,97497.41
2022-10-11T22:54:46.396Z,97498.16
2022-10-11T22:57:13.020Z,97481.22
2022-10-11T22:59:39.440Z,97487.72
2022-10-11T23:02:05.963Z,97483.56
2022-10-11T23:04:32.350Z,97487.00
2022-10-11T23:07:02.552Z,97483.78
2022-10-11T23:09:31.692Z,97481.81
2022-10-11T23:11:59.111Z,97480.44
2022-10-11T23:14:25.631Z,97474.63
2022-10-11T23:16:52.146Z,97477.88
2022-10-11T23:19:18.889Z,97460.56
2022-10-11T23:21:45.774Z,97481.81
2022-10-11T23:24:12.402Z,97482.63
2022-10-11T23:26:38.907Z,97481.81
2022-10-11T23:29:05.359Z,97481.25
2022-10-11T23:31:31.870Z,97481.69
2022-10-11T23:33:58.357Z,97480.06
2022-10-11T23:36:25.787Z,97479.06
2022-10-11T23:38:57.088Z,97484.31
2022-10-11T23:41:26.531Z,97488.78
2022-10-11T23:43:53.423Z,97485.31
2022-10-11T23:46:19.919Z,97474.81
2022-10-11T23:48:46.558Z,97479.03
2022-10-11T23:51:13.329Z,97482.16
2022-10-11T23:53:39.877Z,97474.06
2022-10-11T23:56:06.479Z,97470.00
2022-10-11T23:58:32.982Z,97470.63
